Time;durP1;ratioP1;P1;durP2;ratioP2;P2;SDS_P1;SDS_P2;PMS_P1;PMS_P2;Temp;Humidity;BMP_temperature;BMP_pressure;BME280_temperature;BME280_humidity;BME280_pressure;Samples;Min_cycle;Max_cycle;Signal;HPM_P1;HPM_P2
2021/06/09 00:00:41;;;;;;;9.00;6.45;;;17.50;71.40;;;;;;5051421;28;20025;-77
2021/06/09 00:03:07;;;;;;;8.13;6.47;;;17.40;70.90;;;;;;5051264;28;20024;-77
2021/06/09 00:05:32;;;;;;;7.07;6.15;;;17.20;69.80;;;;;;5051950;28;20032;-77
2021/06/09 00:07:58;;;;;;;10.35;6.20;;;17.10;71.40;;;;;;5055418;28;20116;-76
2021/06/09 00:10:24;;;;;;;7.05;6.28;;;17.00;73.90;;;;;;5056648;28;20068;-77
2021/06/09 00:12:50;;;;;;;8.32;6.70;;;17.00;74.50;;;;;;5056689;28;20017;-77
2021/06/09 00:15:17;;;;;;;6.97;6.25;;;16.90;74.10;;;;;;5056266;28;20035;-76
2021/06/09 00:17:43;;;;;;;7.88;6.20;;;16.80;74.00;;;;;;5045329;28;20064;-77
2021/06/09 00:20:15;;;;;;;7.05;6.13;;;16.70;72.70;;;;;;5055318;28;20033;-77
2021/06/09 00:22:41;;;;;;;8.90;7.25;;;16.60;73.60;;;;;;5038928;28;20026;-77
2021/06/09 00:25:14;;;;;;;9.65;6.60;;;16.50;74.80;;;;;;5036512;28;20175;-77
2021/06/09 00:27:40;;;;;;;11.75;7.70;;;16.50;76.60;;;;;;5035213;28;20467;-76
2021/06/09 00:30:07;;;;;;;8.40;7.13;;;16.40;80.80;;;;;;5036208;28;20037;-76
2021/06/09 00:32:33;;;;;;;11.60;7.10;;;16.30;79.40;;;;;;5040559;28;20025;-76
2021/06/09 00:34:59;;;;;;;9.07;7.85;;;16.30;81.20;;;;;;5038167;28;20029;-76
2021/06/09 00:37:24;;;;;;;8.85;7.07;;;16.30;82.20;;;;;;5035657;28;20112;-78
2021/06/09 00:39:50;;;;;;;9.90;7.60;;;16.30;82.50;;;;;;5035499;28;20171;-76
2021/06/09 00:42:20;;;;;;;9.35;7.13;;;16.30;82.40;;;;;;5034205;28;20449;-77
2021/06/09 00:44:46;;;;;;;10.60;7.55;;;16.20;82.70;;;;;;5035147;28;20033;-76
2021/06/09 00:47:12;;;;;;;10.15;7.30;;;16.10;83.40;;;;;;5034054;28;20075;-77
2021/06/09 00:49:37;;;;;;;10.18;7.93;;;16.00;82.90;;;;;;5035299;28;20029;-77
2021/06/09 00:52:03;;;;;;;9.20;7.50;;;15.90;84.40;;;;;;5034078;28;20107;-77
2021/06/09 00:54:29;;;;;;;9.98;7.38;;;15.90;85.00;;;;;;5035750;28;20021;-77
2021/06/09 00:56:55;;;;;;;9.20;7.38;;;15.90;86.30;;;;;;5035842;28;20030;-77
2021/06/09 00:59:21;;;;;;;8.52;7.55;;;15.90;86.90;;;;;;5036180;28;20033;-77
2021/06/09 01:01:47;;;;;;;8.25;6.55;;;15.90;88.70;;;;;;5035830;28;20494;-77
2021/06/09 01:04:12;;;;;;;8.35;6.72;;;15.90;87.90;;;;;;5034492;28;20021;-77
2021/06/09 01:06:38;;;;;;;10.85;6.88;;;15.90;88.60;;;;;;5034558;28;20026;-77
2021/06/09 01:09:07;;;;;;;8.70;6.60;;;15.90;88.90;;;;;;5035634;28;20425;-77
2021/06/09 01:11:33;;;;;;;10.60;7.13;;;15.80;88.20;;;;;;5053161;28;20071;-77
2021/06/09 01:13:58;;;;;;;9.80;6.97;;;15.80;89.70;;;;;;5055487;28;20021;-77
2021/06/09 01:16:25;;;;;;;9.88;7.13;;;15.80;88.90;;;;;;5055435;28;20021;-77
2021/06/09 01:18:52;;;;;;;11.27;6.88;;;15.80;90.20;;;;;;5055372;28;20032;-77
2021/06/09 01:21:25;;;;;;;12.85;7.28;;;15.80;89.30;;;;;;5055415;28;20032;-77
2021/06/09 01:23:50;;;;;;;7.75;6.90;;;15.70;91.30;;;;;;5055356;28;20021;-77
2021/06/09 01:26:18;;;;;;;11.80;7.65;;;15.60;91.90;;;;;;5053980;28;20028;-78
2021/06/09 01:28:46;;;;;;;10.05;7.00;;;15.60;91.30;;;;;;5055221;28;20103;-77
2021/06/09 01:31:13;;;;;;;8.98;7.55;;;15.40;89.80;;;;;;5053890;28;20037;-78
2021/06/09 01:33:39;;;;;;;10.32;8.00;;;15.30;91.50;;;;;;5055222;28;20021;-77
2021/06/09 01:36:05;;;;;;;8.73;6.82;;;15.10;90.50;;;;;;5054961;28;20032;-77
2021/06/09 01:38:30;;;;;;;8.88;7.97;;;14.90;89.90;;;;;;5055045;28;20021;-77
2021/06/09 01:40:56;;;;;;;8.98;7.65;;;14.80;91.50;;;;;;5053554;28;20029;-76
2021/06/09 01:43:22;;;;;;;9.68;8.25;;;14.70;91.10;;;;;;5053716;28;20017;-77
2021/06/09 01:45:50;;;;;;;10.73;7.78;;;14.60;92.60;;;;;;5053789;28;20036;-77
2021/06/09 01:48:16;;;;;;;8.88;6.88;;;14.60;93.50;;;;;;5054919;28;20025;-77
2021/06/09 01:50:42;;;;;;;8.73;7.82;;;14.50;95.00;;;;;;5070139;28;20095;-78
2021/06/09 01:53:09;;;;;;;10.10;7.18;;;14.40;96.10;;;;;;5053529;28;20032;-77
2021/06/09 01:55:37;;;;;;;9.02;8.02;;;14.50;96.70;;;;;;5054750;28;20035;-77
2021/06/09 01:58:04;;;;;;;10.65;7.53;;;14.40;95.90;;;;;;5053410;28;20100;-77
2021/06/09 02:00:39;;;;;;;10.77;8.23;;;14.40;95.50;;;;;;5070047;28;20025;-77
2021/06/09 02:03:05;;;;;;;9.55;8.30;;;14.30;95.90;;;;;;5054642;28;20024;-77
2021/06/09 02:05:36;;;;;;;10.35;8.38;;;14.20;98.20;;;;;;5054599;28;20058;-77
2021/06/09 02:08:05;;;;;;;9.93;7.75;;;14.10;98.70;;;;;;5054508;28;20032;-74
2021/06/09 02:10:32;;;;;;;15.32;9.25;;;14.10;95.80;;;;;;5045009;28;20126;-74
2021/06/09 02:13:00;;;;;;;15.00;9.32;;;14.10;97.60;;;;;;5034481;28;20061;-75
2021/06/09 02:15:27;;;;;;;11.18;8.57;;;14.20;99.90;;;;;;5034488;28;20052;-75
2021/06/09 02:20:40;;;;;;;10.85;8.10;;;14.20;99.90;;;;;;5034721;28;20059;-74
2021/06/09 02:23:11;;;;;;;11.57;9.23;;;14.20;99.90;;;;;;5034278;28;20067;-75
2021/06/09 02:25:41;;;;;;;11.85;9.73;;;14.20;99.90;;;;;;5053408;28;20029;-75
2021/06/09 02:28:06;;;;;;;12.82;9.15;;;14.20;99.50;;;;;;5053527;28;20040;-74
2021/06/09 02:30:33;;;;;;;12.70;9.45;;;14.10;99.90;;;;;;5053937;28;20033;-74
2021/06/09 02:32:59;;;;;;;12.82;8.82;;;14.10;99.90;;;;;;5054011;28;20021;-75
2021/06/09 02:35:25;;;;;;;15.32;8.65;;;14.10;99.90;;;;;;5052506;28;20036;-75
2021/06/09 02:37:52;;;;;;;13.90;9.30;;;14.10;99.90;;;;;;5053903;28;20108;-75
2021/06/09 02:40:20;;;;;;;9.75;8.50;;;14.10;99.90;;;;;;5053441;28;20025;-74
2021/06/09 02:42:46;;;;;;;9.40;8.38;;;14.10;99.90;;;;;;5052406;28;20478;-75
2021/06/09 02:45:16;;;;;;;12.30;8.65;;;14.10;99.90;;;;;;5053939;28;20379;-75
2021/06/09 02:47:46;;;;;;;10.45;9.15;;;14.10;99.90;;;;;;5053809;28;20013;-75
2021/06/09 02:50:13;;;;;;;11.55;9.00;;;14.20;99.90;;;;;;5052370;28;20071;-74
2021/06/09 02:52:49;;;;;;;12.48;8.80;;;14.20;99.90;;;;;;5053699;28;20025;-75
2021/06/09 02:55:39;;;;;;;10.60;8.15;;;14.20;99.90;;;;;;5052164;28;20025;-74
2021/06/09 02:58:13;;;;;;;12.20;9.23;;;14.30;99.90;;;;;;5033696;28;20030;-75
2021/06/09 03:00:41;;;;;;;11.55;8.85;;;14.20;99.90;;;;;;5032356;28;20018;-74
2021/06/09 03:03:20;;;;;;;10.70;8.27;;;14.30;99.90;;;;;;5033574;28;20171;-76
2021/06/09 03:05:56;;;;;;;16.45;10.20;;;14.30;99.90;;;;;;5033503;28;20018;-76
2021/06/09 03:08:57;;;;;;;21.75;10.35;;;14.40;99.90;;;;;;5035298;28;20018;-75
2021/06/09 03:11:53;;;;;;;8.93;7.88;;;14.50;99.90;;;;;;5019240;28;20398;-75
2021/06/09 03:17:00;;;;;;;11.30;8.77;;;14.60;99.90;;;;;;5053437;28;20029;-75
2021/06/09 03:19:57;;;;;;;10.63;7.70;;;14.60;99.90;;;;;;5052020;28;20035;-76
2021/06/09 03:22:44;;;;;;;10.95;8.55;;;14.80;99.90;;;;;;5053297;28;20441;-76
2021/06/09 03:25:15;;;;;;;14.05;8.32;;;15.10;99.90;;;;;;5048866;28;20022;-76
2021/06/09 03:27:53;;;;;;;10.48;9.50;;;15.40;99.90;;;;;;5031977;28;20033;-75
2021/06/09 03:30:22;;;;;;;10.45;7.45;;;15.70;99.90;;;;;;5033147;28;20131;-75
2021/06/09 03:32:49;;;;;;;8.70;7.45;;;16.00;95.80;;;;;;5033019;28;20033;-76
2021/06/09 03:35:23;;;;;;;8.50;7.57;;;16.10;93.60;;;;;;5033066;28;20044;-75
2021/06/09 03:37:54;;;;;;;8.68;7.88;;;16.40;92.50;;;;;;5031767;28;20080;-75
2021/06/09 03:40:26;;;;;;;9.75;7.10;;;16.60;90.00;;;;;;5030923;28;20048;-76
2021/06/09 03:42:56;;;;;;;9.48;7.65;;;16.80;88.10;;;;;;5046276;28;20474;-76
2021/06/09 03:45:26;;;;;;;9.63;8.40;;;17.10;84.70;;;;;;5052910;28;20033;-76
2021/06/09 03:47:55;;;;;;;8.55;7.68;;;17.40;88.30;;;;;;5052888;28;20147;-76
2021/06/09 03:50:23;;;;;;;12.43;8.55;;;17.50;86.80;;;;;;5051748;28;20037;-76
2021/06/09 03:52:49;;;;;;;13.65;8.10;;;17.70;86.30;;;;;;5052784;28;20025;-75
2021/06/09 03:55:22;;;;;;;8.18;6.35;;;17.80;85.70;;;;;;5048547;28;20033;-76
2021/06/09 03:57:50;;;;;;;7.47;6.75;;;18.10;78.20;;;;;;5032893;28;20030;-76
2021/06/09 04:00:17;;;;;;;8.60;6.97;;;18.30;77.70;;;;;;5032718;28;20018;-76
2021/06/09 04:02:46;;;;;;;13.75;7.05;;;18.50;76.40;;;;;;5032851;28;20021;-75
2021/06/09 04:05:12;;;;;;;9.55;6.93;;;18.60;76.10;;;;;;5031495;28;20033;-75
2021/06/09 04:07:38;;;;;;;7.57;6.88;;;18.70;78.10;;;;;;5031552;28;20056;-76
2021/06/09 04:10:05;;;;;;;7.53;6.30;;;18.80;78.30;;;;;;5031282;28;20037;-76
2021/06/09 04:12:34;;;;;;;9.10;7.32;;;18.90;77.20;;;;;;5032703;28;20445;-75
2021/06/09 04:15:02;;;;;;;7.00;6.30;;;18.90;76.50;;;;;;5032560;28;20021;-76
2021/06/09 04:17:30;;;;;;;8.88;6.85;;;18.70;76.20;;;;;;5031456;28;20032;-75
2021/06/09 04:19:59;;;;;;;7.47;6.60;;;18.70;76.00;;;;;;5032560;28;20479;-75
2021/06/09 04:22:26;;;;;;;7.00;5.75;;;18.70;76.20;;;;;;5036143;28;20021;-76
2021/06/09 04:24:52;;;;;;;7.63;6.20;;;18.80;75.50;;;;;;5052019;28;20032;-75
2021/06/09 04:27:21;;;;;;;8.27;6.50;;;18.90;74.40;;;;;;5052525;28;20108;-76
2021/06/09 04:29:48;;;;;;;6.47;5.80;;;19.00;73.70;;;;;;5051348;28;20089;-75
2021/06/09 04:32:15;;;;;;;7.43;6.70;;;19.00;74.40;;;;;;5052665;28;20025;-75
2021/06/09 04:34:47;;;;;;;9.27;6.72;;;19.10;74.00;;;;;;5052369;28;20032;-76
2021/06/09 04:37:16;;;;;;;7.95;6.13;;;19.10;73.50;;;;;;5052471;28;20048;-75
2021/06/09 04:39:42;;;;;;;8.85;6.10;;;19.00;74.00;;;;;;5051813;28;20021;-75
2021/06/09 04:42:09;;;;;;;6.68;6.00;;;19.30;73.40;;;;;;5052016;28;20029;-75
2021/06/09 04:44:37;;;;;;;7.18;6.43;;;19.40;72.20;;;;;;5050661;28;20037;-75
2021/06/09 04:47:03;;;;;;;5.97;5.35;;;19.50;71.10;;;;;;5051955;28;20386;-75
2021/06/09 04:49:31;;;;;;;8.50;5.05;;;19.60;71.40;;;;;;5052297;28;20102;-75
2021/06/09 04:51:58;;;;;;;7.05;5.15;;;19.60;70.70;;;;;;5053220;28;20094;-75
2021/06/09 04:54:24;;;;;;;8.75;5.70;;;19.70;71.30;;;;;;5054625;28;20112;-75
2021/06/09 04:56:50;;;;;;;9.63;6.18;;;19.70;70.10;;;;;;5038512;28;20124;-75
2021/06/09 04:59:15;;;;;;;8.32;5.95;;;19.80;70.30;;;;;;5034663;28;20475;-74
2021/06/09 05:01:41;;;;;;;8.60;5.97;;;19.80;70.60;;;;;;5034602;28;20026;-75
2021/06/09 05:04:07;;;;;;;5.50;4.95;;;19.60;70.40;;;;;;5035775;28;20025;-75
2021/06/09 05:06:33;;;;;;;6.63;5.65;;;19.70;70.20;;;;;;5034570;28;20013;-75
2021/06/09 05:09:00;;;;;;;5.43;4.93;;;19.80;69.10;;;;;;5035658;28;20037;-75
2021/06/09 05:12:04;;;;;;;25.60;8.07;;;19.80;68.90;;;;;;5042693;28;20443;-75
2021/06/09 05:14:49;;;;;;;7.90;6.25;;;19.90;70.80;;;;;;5042521;28;20037;-74
2021/06/09 05:17:19;;;;;;;6.20;5.60;;;20.00;69.60;;;;;;5055280;28;20078;-74
2021/06/09 05:19:46;;;;;;;13.65;6.93;;;20.10;68.90;;;;;;5054142;28;20111;-75
2021/06/09 05:22:30;;;;;;;7.75;6.25;;;20.10;67.40;;;;;;5054142;28;20029;-75
2021/06/09 05:25:00;;;;;;;6.25;5.65;;;20.20;67.80;;;;;;5053326;28;20017;-74
2021/06/09 05:27:27;;;;;;;5.68;5.07;;;20.20;68.00;;;;;;5047716;28;20474;-74
2021/06/09 05:29:53;;;;;;;5.13;4.70;;;20.20;66.90;;;;;;5055027;28;20024;-74
2021/06/09 05:32:19;;;;;;;4.90;4.43;;;20.20;66.90;;;;;;5055052;28;20397;-74
2021/06/09 05:34:47;;;;;;;8.38;5.10;;;20.30;65.20;;;;;;5055127;28;20028;-74
2021/06/09 05:37:15;;;;;;;6.10;5.50;;;20.30;64.70;;;;;;5055146;28;20044;-74
2021/06/09 05:39:41;;;;;;;5.95;5.13;;;20.50;66.70;;;;;;5051518;28;20063;-75
2021/06/09 05:42:13;;;;;;;8.30;5.10;;;20.60;64.80;;;;;;5044091;28;20026;-74
2021/06/09 05:44:49;;;;;;;5.65;5.07;;;20.70;65.40;;;;;;5041881;28;20037;-74
2021/06/09 05:47:15;;;;;;;8.73;5.28;;;20.90;66.10;;;;;;5042804;28;20028;-74
2021/06/09 05:49:41;;;;;;;8.55;5.38;;;21.00;63.40;;;;;;5045867;28;20032;-74
2021/06/09 05:52:08;;;;;;;5.45;4.95;;;20.90;64.00;;;;;;5040637;28;20033;-74
2021/06/09 05:54:41;;;;;;;15.57;5.55;;;20.90;62.70;;;;;;5051736;28;20025;-73
2021/06/09 05:57:10;;;;;;;7.65;4.90;;;20.90;63.40;;;;;;5036702;28;20048;-74
2021/06/09 05:59:38;;;;;;;5.90;4.50;;;21.00;62.00;;;;;;5033496;28;20030;-74
2021/06/09 06:02:04;;;;;;;7.68;4.40;;;21.10;61.40;;;;;;5034666;28;20025;-74
2021/06/09 06:04:30;;;;;;;10.23;5.45;;;21.20;61.60;;;;;;5035276;28;20037;-74
2021/06/09 06:06:57;;;;;;;4.28;3.83;;;21.30;61.40;;;;;;5037469;28;20063;-73
2021/06/09 06:09:22;;;;;;;4.50;4.13;;;21.40;59.70;;;;;;5049528;28;20051;-74
2021/06/09 06:11:50;;;;;;;5.50;4.40;;;21.10;59.30;;;;;;5043113;28;20383;-73
2021/06/09 06:14:17;;;;;;;8.68;3.80;;;21.20;59.20;;;;;;5041437;28;20029;-73
2021/06/09 06:16:51;;;;;;;6.03;4.45;;;21.30;58.70;;;;;;5038161;28;20021;-74
2021/06/09 06:19:17;;;;;;;4.18;3.83;;;21.40;58.90;;;;;;5045394;28;20020;-74
2021/06/09 06:21:43;;;;;;;5.93;4.22;;;21.50;58.90;;;;;;5053254;28;20134;-73
2021/06/09 06:24:09;;;;;;;4.47;3.85;;;21.30;57.90;;;;;;5051661;28;20021;-73
2021/06/09 06:26:36;;;;;;;12.02;4.20;;;21.30;57.20;;;;;;5052210;28;20033;-74
2021/06/09 06:29:02;;;;;;;3.95;3.60;;;21.50;57.10;;;;;;5053820;28;20170;-73
2021/06/09 06:31:29;;;;;;;4.63;3.60;;;21.50;57.30;;;;;;5054089;28;20037;-74
2021/06/09 06:33:59;;;;;;;6.20;3.80;;;21.60;57.40;;;;;;5052227;28;20025;-72
2021/06/09 06:36:26;;;;;;;6.60;3.78;;;21.70;57.40;;;;;;5053705;28;20020;-73
2021/06/09 06:38:53;;;;;;;5.97;3.88;;;21.80;56.60;;;;;;5052012;28;20115;-73
2021/06/09 06:41:21;;;;;;;3.90;3.60;;;22.00;56.30;;;;;;5052447;28;20044;-73
2021/06/09 06:43:47;;;;;;;4.88;3.35;;;22.20;55.90;;;;;;5053280;28;20550;-74
2021/06/09 06:46:15;;;;;;;5.20;3.67;;;22.30;55.60;;;;;;5053317;28;20064;-75
2021/06/09 06:48:41;;;;;;;3.92;3.63;;;22.30;54.90;;;;;;5053314;28;20071;-75
2021/06/09 06:51:09;;;;;;;7.78;4.05;;;22.50;54.70;;;;;;5051771;28;20043;-75
2021/06/09 06:53:39;;;;;;;2.88;2.67;;;22.50;53.90;;;;;;5068409;28;20506;-75
2021/06/09 06:56:06;;;;;;;5.13;3.13;;;22.40;53.20;;;;;;5052090;28;20109;-75
2021/06/09 06:58:32;;;;;;;5.18;3.45;;;22.60;52.90;;;;;;5052065;28;20112;-75
2021/06/09 07:01:00;;;;;;;7.88;3.38;;;22.40;52.20;;;;;;5053236;28;20351;-75
2021/06/09 07:03:27;;;;;;;3.80;3.17;;;22.50;52.60;;;;;;5042195;28;20031;-73
2021/06/09 07:05:54;;;;;;;3.80;3.50;;;22.60;52.50;;;;;;5031968;28;20017;-73
2021/06/09 07:08:19;;;;;;;3.15;2.85;;;22.70;51.40;;;;;;5033048;28;20021;-74
2021/06/09 07:10:45;;;;;;;3.08;2.67;;;22.70;51.60;;;;;;5033394;28;20064;-74
2021/06/09 07:13:11;;;;;;;5.05;3.03;;;22.70;50.50;;;;;;5033270;28;20386;-73
2021/06/09 07:15:39;;;;;;;5.85;3.20;;;22.60;50.50;;;;;;5033033;28;20072;-73
2021/06/09 07:18:06;;;;;;;4.38;3.05;;;22.70;51.00;;;;;;5046157;28;20367;-73
2021/06/09 07:20:32;;;;;;;3.53;3.20;;;22.90;51.40;;;;;;5053026;28;20017;-73
2021/06/09 07:22:59;;;;;;;4.55;3.08;;;23.10;50.90;;;;;;5051218;28;20032;-74
2021/06/09 07:25:28;;;;;;;4.03;3.13;;;23.10;50.00;;;;;;5051817;28;20159;-73
2021/06/09 07:27:58;;;;;;;4.18;3.78;;;23.10;50.10;;;;;;5052310;28;20033;-74
2021/06/09 07:30:29;;;;;;;4.35;3.45;;;23.30;50.70;;;;;;5033191;28;20394;-74
2021/06/09 07:32:55;;;;;;;6.05;3.03;;;23.40;50.00;;;;;;5036245;28;20033;-73
2021/06/09 07:35:21;;;;;;;6.63;3.40;;;23.20;49.10;;;;;;5052789;28;20055;-73
2021/06/09 07:37:50;;;;;;;4.85;3.08;;;23.20;49.00;;;;;;5052464;28;20478;-74
2021/06/09 07:40:24;;;;;;;3.65;2.58;;;22.90;48.70;;;;;;5052751;28;20051;-74
2021/06/09 07:42:53;;;;;;;4.07;3.65;;;23.10;48.60;;;;;;5051510;28;20021;-73
2021/06/09 07:45:22;;;;;;;4.00;3.60;;;23.10;49.40;;;;;;5051095;28;20036;-73
2021/06/09 07:47:50;;;;;;;3.63;2.88;;;23.10;49.00;;;;;;5051522;28;20385;-73
2021/06/09 07:50:24;;;;;;;4.85;3.47;;;23.10;49.00;;;;;;5050391;28;20029;-73
2021/06/09 07:52:51;;;;;;;6.28;3.95;;;23.10;48.70;;;;;;5044163;28;20025;-73
2021/06/09 07:55:17;;;;;;;4.47;3.30;;;23.10;50.00;;;;;;5047022;28;20029;-73
2021/06/09 07:57:44;;;;;;;6.53;3.28;;;23.30;49.20;;;;;;5048627;28;20040;-74
2021/06/09 08:00:12;;;;;;;16.95;3.75;;;23.70;50.00;;;;;;5042177;28;20026;-73
2021/06/09 08:02:43;;;;;;;5.47;3.40;;;23.70;48.20;;;;;;5029320;28;20421;-73
2021/06/09 08:05:10;;;;;;;3.75;3.35;;;23.40;48.50;;;;;;5028989;28;20029;-74
2021/06/09 08:07:40;;;;;;;6.82;3.63;;;23.50;48.00;;;;;;5029644;28;20025;-74
2021/06/09 08:10:09;;;;;;;4.00;3.38;;;23.30;48.70;;;;;;5031359;28;20532;-74
2021/06/09 08:12:36;;;;;;;4.47;3.53;;;23.20;48.70;;;;;;5038615;28;20029;-74
2021/06/09 08:15:02;;;;;;;3.90;3.22;;;23.40;50.00;;;;;;5034072;28;20038;-74
2021/06/09 08:17:29;;;;;;;5.95;3.20;;;23.60;49.30;;;;;;5034121;28;20028;-74
2021/06/09 08:19:55;;;;;;;5.85;3.65;;;23.50;47.50;;;;;;5067052;28;20123;-74
2021/06/09 08:22:20;;;;;;;4.32;3.92;;;23.50;48.50;;;;;;5050424;28;20199;-73
2021/06/09 08:24:46;;;;;;;3.10;2.85;;;23.70;48.60;;;;;;5032254;28;20112;-74
2021/06/09 08:27:12;;;;;;;8.45;4.53;;;23.60;47.10;;;;;;5032071;28;20029;-74
2021/06/09 08:29:38;;;;;;;4.43;4.03;;;23.70;46.20;;;;;;5034829;28;20037;-75
2021/06/09 08:32:06;;;;;;;3.45;3.25;;;24.00;46.60;;;;;;5034140;28;20084;-75
2021/06/09 08:34:32;;;;;;;3.80;3.40;;;24.00;46.40;;;;;;5035456;28;20017;-74
2021/06/09 08:36:58;;;;;;;4.63;3.25;;;24.00;43.70;;;;;;5034396;28;20041;-74
2021/06/09 08:39:26;;;;;;;17.85;4.00;;;23.80;43.50;;;;;;5035142;28;20034;-73
2021/06/09 08:41:54;;;;;;;5.57;3.42;;;24.00;44.60;;;;;;5034387;28;20135;-74
2021/06/09 08:44:21;;;;;;;4.72;3.70;;;23.90;44.90;;;;;;5035339;28;20057;-74
2021/06/09 08:46:47;;;;;;;5.90;3.88;;;24.10;44.70;;;;;;5034109;28;20021;-74
2021/06/09 08:49:15;;;;;;;4.25;3.88;;;24.40;45.30;;;;;;5034033;28;20022;-74
2021/06/09 08:51:41;;;;;;;6.40;3.47;;;24.60;46.00;;;;;;5034944;28;20474;-74
2021/06/09 08:54:08;;;;;;;3.50;3.20;;;24.70;42.90;;;;;;5034575;28;20026;-74
2021/06/09 08:56:36;;;;;;;4.15;3.75;;;24.70;41.60;;;;;;5033959;28;20049;-75
2021/06/09 08:59:02;;;;;;;4.00;3.60;;;24.60;42.20;;;;;;5048818;28;20398;-74
2021/06/09 09:01:31;;;;;;;16.77;3.90;;;24.60;42.60;;;;;;5043344;28;20030;-74
2021/06/09 09:03:57;;;;;;;5.45;3.97;;;24.30;43.50;;;;;;5034948;28;20075;-74
2021/06/09 09:06:24;;;;;;;4.80;3.83;;;23.90;44.40;;;;;;5034698;28;20033;-74
2021/06/09 09:08:52;;;;;;;3.30;3.00;;;23.70;44.60;;;;;;5035146;28;20037;-74
2021/06/09 09:11:19;;;;;;;6.93;3.60;;;23.70;43.60;;;;;;5032330;28;20041;-74
2021/06/09 09:13:45;;;;;;;4.95;3.67;;;23.70;44.10;;;;;;5033349;28;20356;-73
2021/06/09 09:16:10;;;;;;;3.83;3.50;;;23.30;43.70;;;;;;5034227;28;20029;-74
2021/06/09 09:18:47;;;;;;;5.38;3.60;;;23.30;44.20;;;;;;5034112;28;20029;-74
2021/06/09 09:21:31;;;;;;;4.85;3.38;;;23.70;44.50;;;;;;5035106;28;20029;-73
2021/06/09 09:23:56;;;;;;;3.40;3.10;;;23.90;43.60;;;;;;5037553;28;20164;-73
2021/06/09 09:26:31;;;;;;;3.75;3.10;;;24.20;42.10;;;;;;5055004;28;20103;-75
2021/06/09 09:29:21;;;;;;;4.07;3.30;;;24.10;41.00;;;;;;5047201;28;20529;-74
2021/06/09 09:32:07;;;;;;;6.38;3.40;;;24.10;40.90;;;;;;5043214;28;20079;-74
2021/06/09 09:34:40;;;;;;;4.63;3.65;;;24.10;41.30;;;;;;5053429;28;20028;-74
2021/06/09 09:37:13;;;;;;;5.05;3.88;;;24.10;42.70;;;;;;5068996;28;20132;-74
2021/06/09 09:39:43;;;;;;;4.28;3.45;;;23.90;43.00;;;;;;5054080;28;20032;-74
2021/06/09 09:42:34;;;;;;;6.53;3.85;;;23.90;43.90;;;;;;5069589;28;20040;-74
2021/06/09 09:45:21;;;;;;;4.53;3.35;;;23.70;45.30;;;;;;5054339;28;20036;-74
2021/06/09 09:48:13;;;;;;;4.15;3.85;;;23.60;46.50;;;;;;5050285;28;20033;-74
2021/06/09 09:50:44;;;;;;;5.05;3.70;;;23.60;47.00;;;;;;5053478;28;20579;-74
2021/06/09 09:53:23;;;;;;;4.00;3.70;;;23.60;47.00;;;;;;5051808;28;20473;-74
2021/06/09 09:56:10;;;;;;;8.00;3.95;;;23.40;46.70;;;;;;5063497;28;20021;-74
2021/06/09 09:59:01;;;;;;;3.90;3.50;;;23.40;46.40;;;;;;5049914;28;20045;-75
2021/06/09 10:01:29;;;;;;;5.32;3.83;;;23.80;45.40;;;;;;5048876;28;20022;-74
2021/06/09 10:03:57;;;;;;;7.18;4.22;;;24.20;44.90;;;;;;5051091;28;20033;-74
2021/06/09 10:06:31;;;;;;;5.03;4.22;;;24.50;44.10;;;;;;5068057;28;20029;-74
2021/06/09 10:09:14;;;;;;;3.92;3.63;;;25.00;43.40;;;;;;5051589;28;20033;-74
2021/06/09 10:11:41;;;;;;;;;;;25.50;41.70;;;;;;5050493;28;20044;-75
2021/06/09 10:14:16;;;;;;;4.28;3.90;;;25.90;39.40;;;;;;5049859;28;19967;-74
2021/06/09 10:16:42;;;;;;;4.72;3.58;;;26.10;39.30;;;;;;5052540;28;20028;-74
2021/06/09 10:19:10;;;;;;;3.95;3.65;;;26.20;39.30;;;;;;5051036;28;20063;-74
2021/06/09 10:21:54;;;;;;;6.05;4.10;;;26.10;39.80;;;;;;5043594;28;20032;-75
2021/06/09 10:24:22;;;;;;;4.15;3.78;;;25.60;39.90;;;;;;5047758;28;20394;-74
2021/06/09 10:26:57;;;;;;;5.05;3.25;;;25.20;40.10;;;;;;5050970;28;20032;-75
2021/06/09 10:29:25;;;;;;;8.20;4.00;;;24.80;40.50;;;;;;5043603;28;20104;-74
2021/06/09 10:31:53;;;;;;;8.82;3.70;;;24.60;41.20;;;;;;5031404;28;20037;-73
2021/06/09 10:34:22;;;;;;;11.10;4.32;;;24.40;42.00;;;;;;5032647;28;20021;-74
2021/06/09 10:36:50;;;;;;;4.45;4.00;;;24.20;42.60;;;;;;5029869;28;20026;-74
2021/06/09 10:39:17;;;;;;;4.05;3.75;;;24.30;42.70;;;;;;5034749;28;20051;-75
2021/06/09 10:41:46;;;;;;;4.88;3.70;;;24.10;42.00;;;;;;5030514;28;20041;-73
2021/06/09 10:44:17;;;;;;;7.35;4.50;;;24.10;42.00;;;;;;5031967;28;20036;-74
2021/06/09 10:46:45;;;;;;;7.25;5.00;;;24.00;45.80;;;;;;5065029;28;20029;-75
2021/06/09 10:49:14;;;;;;;6.13;4.47;;;23.60;47.50;;;;;;5051478;28;20039;-75
2021/06/09 10:51:40;;;;;;;8.15;4.85;;;23.50;47.70;;;;;;5047895;28;20367;-74
2021/06/09 10:54:11;;;;;;;5.32;4.82;;;23.20;48.00;;;;;;5034497;28;20103;-74
2021/06/09 10:56:38;;;;;;;5.35;4.18;;;23.10;49.20;;;;;;5030049;28;20060;-74
2021/06/09 10:59:04;;;;;;;5.25;4.75;;;23.00;49.80;;;;;;5035576;28;20187;-74
2021/06/09 11:01:30;;;;;;;6.80;4.68;;;23.00;50.20;;;;;;5050064;28;20045;-74
2021/06/09 11:03:58;;;;;;;5.63;5.10;;;22.90;51.00;;;;;;5049545;28;20478;-74
2021/06/09 11:06:43;;;;;;;5.43;4.15;;;23.00;50.50;;;;;;5051392;28;20135;-74
2021/06/09 11:09:13;;;;;;;5.45;4.95;;;23.20;50.50;;;;;;5050412;28;20112;-74
2021/06/09 11:11:39;;;;;;;4.40;4.00;;;23.20;49.90;;;;;;5051280;28;20075;-75
2021/06/09 11:14:23;;;;;;;4.97;4.57;;;23.50;50.30;;;;;;5049084;28;20033;-75
2021/06/09 11:16:55;;;;;;;5.82;4.47;;;24.00;48.60;;;;;;5065601;28;20047;-75
2021/06/09 11:19:32;;;;;;;12.18;5.45;;;24.50;47.60;;;;;;5042053;28;20033;-74
2021/06/09 11:22:17;;;;;;;5.22;4.82;;;24.90;45.70;;;;;;5028964;28;20050;-74
2021/06/09 11:25:09;;;;;;;7.18;4.43;;;25.40;42.00;;;;;;5029631;28;20041;-75
2021/06/09 11:27:36;;;;;;;4.47;3.75;;;25.80;41.90;;;;;;5031302;28;20021;-76
2021/06/09 11:30:26;;;;;;;5.95;3.92;;;25.80;38.70;;;;;;5039916;28;20383;-75
2021/06/09 11:32:54;;;;;;;6.05;3.70;;;25.80;38.60;;;;;;5021239;28;20388;-75
2021/06/09 11:35:41;;;;;;;4.15;3.58;;;25.50;38.30;;;;;;5030471;28;20159;-74
2021/06/09 11:38:13;;;;;;;5.97;3.80;;;25.50;38.20;;;;;;5029736;28;20029;-74
2021/06/09 11:41:05;;;;;;;6.72;4.70;;;25.50;38.90;;;;;;5029877;28;20038;-74
2021/06/09 11:43:45;;;;;;;5.63;3.85;;;25.00;40.20;;;;;;5030885;28;20025;-75
2021/06/09 11:46:26;;;;;;;4.80;3.97;;;25.30;40.80;;;;;;5030342;28;20041;-75
2021/06/09 11:48:52;;;;;;;7.72;4.10;;;25.50;40.00;;;;;;5028836;28;20026;-75
2021/06/09 11:51:17;;;;;;;5.03;4.50;;;25.70;41.20;;;;;;5030118;28;20402;-75
2021/06/09 11:53:46;;;;;;;5.22;4.72;;;25.60;41.10;;;;;;5030378;28;20025;-75
2021/06/09 11:56:22;;;;;;;4.55;4.15;;;25.90;40.80;;;;;;5029854;28;20510;-75
2021/06/09 11:59:00;;;;;;;4.88;4.03;;;26.10;40.40;;;;;;5027232;28;20360;-74
2021/06/09 12:01:36;;;;;;;4.75;3.90;;;26.30;39.30;;;;;;5047580;28;20505;-75
2021/06/09 12:04:22;;;;;;;5.95;4.22;;;26.50;38.90;;;;;;5053599;28;20098;-71
2021/06/09 12:06:53;;;;;;;3.97;3.67;;;26.40;38.40;;;;;;5053042;28;20037;-71
2021/06/09 12:09:21;;;;;;;6.18;4.47;;;26.20;38.50;;;;;;5052841;28;20453;-71
2021/06/09 12:11:53;;;;;;;10.98;4.53;;;25.90;39.20;;;;;;5054416;28;20081;-70
2021/06/09 12:14:24;;;;;;;;;;;25.50;39.90;;;;;;5051890;28;20043;-70
2021/06/09 12:16:54;;;;;;;7.03;4.45;;;25.20;40.20;;;;;;5050186;28;20319;-70
2021/06/09 12:19:29;;;;;;;5.45;4.30;;;24.80;40.80;;;;;;5069452;28;20017;-71
2021/06/09 12:21:57;;;;;;;5.20;4.30;;;24.70;41.90;;;;;;5052878;28;20056;-72
2021/06/09 12:24:23;;;;;;;4.80;4.25;;;24.70;42.80;;;;;;5069362;28;20024;-71
2021/06/09 12:27:01;;;;;;;5.70;4.45;;;24.60;43.10;;;;;;5047677;28;20033;-73
2021/06/09 12:29:30;;;;;;;6.65;3.92;;;24.50;43.50;;;;;;5046508;28;20036;-74
2021/06/09 12:31:57;;;;;;;8.70;4.75;;;24.60;43.80;;;;;;5044723;28;20044;-74
2021/06/09 12:34:32;;;;;;;5.72;4.10;;;24.70;44.10;;;;;;5048376;28;20013;-74
2021/06/09 12:37:06;;;;;;;3.80;3.45;;;24.70;44.60;;;;;;5048805;28;20029;-74
2021/06/09 12:39:32;;;;;;;5.35;3.65;;;25.00;44.30;;;;;;5045262;28;20070;-74
2021/06/09 12:41:59;;;;;;;4.72;3.83;;;25.50;43.50;;;;;;5046195;28;20076;-75
2021/06/09 12:44:28;;;;;;;7.25;4.53;;;25.70;42.60;;;;;;5046760;28;20067;-74
2021/06/09 12:47:00;;;;;;;4.50;4.10;;;26.00;44.50;;;;;;5037762;28;20030;-74
2021/06/09 12:49:27;;;;;;;;;;;26.10;46.20;;;;;;5034444;28;20024;-74
2021/06/09 12:52:04;;;;;;;4.93;4.28;;;26.00;45.50;;;;;;5032991;28;19917;-74
2021/06/09 12:54:30;;;;;;;4.90;4.50;;;25.80;48.90;;;;;;5032181;28;20514;-74
2021/06/09 12:56:56;;;;;;;9.50;4.78;;;25.50;52.90;;;;;;5033148;28;20172;-74
2021/06/09 12:59:37;;;;;;;11.13;6.40;;;25.30;51.60;;;;;;5035934;28;20025;-74
2021/06/09 13:02:05;;;;;;;10.07;5.10;;;25.40;49.20;;;;;;5045721;28;20079;-74
2021/06/09 13:04:40;;;;;;;9.98;5.68;;;25.50;48.10;;;;;;5031329;28;20167;-74